Terminal Aerodrome Forecast
Issued by NWS

Home | Current Version | Previous Version | Text Only | Print | Product List | Glossary On
Versions: 1 2 3 4 5 6 7 8 9 10 11 12 13 14 15 16 17 18 19 20 21 22 23 24 25 26 27
000
FTUS41 KOKX 080234 AAA
TAFSWF
TAF AMD
KSWF 080234Z 0803/0906 VRB05KT P6SM SCT040 BKN250
     FM080600 VRB03KT 5SM BR SCT040 BKN150
     FM081300 27006KT P6SM VCTS BKN040CB
     FM081900 30007KT P6SM BKN040
      AMD NOT SKED=

USA.gov is the U.S. government's official web portal to all federal, state and local government web resources and services.